sensor_id;sensor_type;location;lat;lon;timestamp;P1;durP1;ratioP1;P2;durP2;ratioP2
2480;SDS011;57396;48.742;9.128;2023-04-09T00:02:11;13.30;;;11.90;;
2480;SDS011;57396;48.742;9.128;2023-04-09T00:04:37;15.33;;;12.50;;
2480;SDS011;57396;48.742;9.128;2023-04-09T00:07:02;14.83;;;11.90;;
2480;SDS011;57396;48.742;9.128;2023-04-09T00:09:28;13.27;;;11.70;;
2480;SDS011;57396;48.742;9.128;2023-04-09T00:11:53;14.80;;;12.43;;
2480;SDS011;57396;48.742;9.128;2023-04-09T00:14:19;14.90;;;12.33;;
2480;SDS011;57396;48.742;9.128;2023-04-09T00:16:44;17.70;;;13.53;;
2480;SDS011;57396;48.742;9.128;2023-04-09T00:19:09;21.40;;;14.03;;
2480;SDS011;57396;48.742;9.128;2023-04-09T00:21:35;23.60;;;13.40;;
2480;SDS011;57396;48.742;9.128;2023-04-09T00:24:01;20.13;;;13.13;;
2480;SDS011;57396;48.742;9.128;2023-04-09T00:26:27;16.53;;;12.90;;
2480;SDS011;57396;48.742;9.128;2023-04-09T00:28:52;20.53;;;12.70;;
2480;SDS011;57396;48.742;9.128;2023-04-09T00:31:18;18.70;;;13.50;;
2480;SDS011;57396;48.742;9.128;2023-04-09T00:33:43;19.23;;;13.30;;
2480;SDS011;57396;48.742;9.128;2023-04-09T00:36:08;19.60;;;13.57;;
2480;SDS011;57396;48.742;9.128;2023-04-09T00:38:34;21.83;;;13.23;;
2480;SDS011;57396;48.742;9.128;2023-04-09T00:41:00;19.97;;;13.40;;
2480;SDS011;57396;48.742;9.128;2023-04-09T00:43:25;20.23;;;13.23;;
2480;SDS011;57396;48.742;9.128;2023-04-09T00:45:51;26.37;;;15.60;;
2480;SDS011;57396;48.742;9.128;2023-04-09T00:48:16;32.97;;;15.90;;
2480;SDS011;57396;48.742;9.128;2023-04-09T00:50:42;49.87;;;18.93;;
2480;SDS011;57396;48.742;9.128;2023-04-09T00:53:07;35.57;;;17.90;;
2480;SDS011;57396;48.742;9.128;2023-04-09T00:55:33;31.83;;;16.47;;
2480;SDS011;57396;48.742;9.128;2023-04-09T00:58:00;27.07;;;15.00;;
2480;SDS011;57396;48.742;9.128;2023-04-09T01:00:25;26.00;;;13.87;;
2480;SDS011;57396;48.742;9.128;2023-04-09T01:02:52;21.77;;;14.33;;
2480;SDS011;57396;48.742;9.128;2023-04-09T01:05:18;20.43;;;14.30;;
2480;SDS011;57396;48.742;9.128;2023-04-09T01:15:43;18.60;;;12.53;;
2480;SDS011;57396;48.742;9.128;2023-04-09T01:18:17;17.27;;;13.57;;
2480;SDS011;57396;48.742;9.128;2023-04-09T01:20:48;19.00;;;14.20;;
2480;SDS011;57396;48.742;9.128;2023-04-09T01:23:22;18.80;;;14.10;;
2480;SDS011;57396;48.742;9.128;2023-04-09T01:28:36;15.33;;;12.90;;
2480;SDS011;57396;48.742;9.128;2023-04-09T01:31:11;19.80;;;13.83;;
2480;SDS011;57396;48.742;9.128;2023-04-09T01:33:38;16.27;;;13.03;;
2480;SDS011;57396;48.742;9.128;2023-04-09T01:36:05;14.67;;;12.17;;
2480;SDS011;57396;48.742;9.128;2023-04-09T01:38:31;15.27;;;12.40;;
2480;SDS011;57396;48.742;9.128;2023-04-09T01:40:58;16.40;;;11.77;;
2480;SDS011;57396;48.742;9.128;2023-04-09T01:43:24;23.23;;;14.80;;
2480;SDS011;57396;48.742;9.128;2023-04-09T01:45:51;17.87;;;14.00;;
2480;SDS011;57396;48.742;9.128;2023-04-09T01:48:18;21.70;;;15.17;;
2480;SDS011;57396;48.742;9.128;2023-04-09T01:50:43;19.13;;;14.10;;
2480;SDS011;57396;48.742;9.128;2023-04-09T01:53:09;17.53;;;13.40;;
2480;SDS011;57396;48.742;9.128;2023-04-09T01:55:35;21.50;;;14.50;;
2480;SDS011;57396;48.742;9.128;2023-04-09T01:58:00;17.50;;;13.40;;
2480;SDS011;57396;48.742;9.128;2023-04-09T02:00:26;16.37;;;13.40;;
2480;SDS011;57396;48.742;9.128;2023-04-09T02:05:52;17.87;;;13.57;;
2480;SDS011;57396;48.742;9.128;2023-04-09T02:08:19;15.57;;;13.27;;
2480;SDS011;57396;48.742;9.128;2023-04-09T02:10:48;21.47;;;14.30;;
2480;SDS011;57396;48.742;9.128;2023-04-09T02:13:18;19.80;;;14.70;;
2480;SDS011;57396;48.742;9.128;2023-04-09T02:15:44;15.63;;;13.07;;
2480;SDS011;57396;48.742;9.128;2023-04-09T02:18:20;18.73;;;13.30;;
2480;SDS011;57396;48.742;9.128;2023-04-09T02:20:48;17.60;;;13.67;;
2480;SDS011;57396;48.742;9.128;2023-04-09T02:23:15;16.30;;;13.57;;
2480;SDS011;57396;48.742;9.128;2023-04-09T02:25:40;14.90;;;12.67;;
2480;SDS011;57396;48.742;9.128;2023-04-09T02:28:06;19.70;;;12.50;;
2480;SDS011;57396;48.742;9.128;2023-04-09T02:30:31;16.20;;;13.27;;
2480;SDS011;57396;48.742;9.128;2023-04-09T02:32:57;15.63;;;12.83;;
2480;SDS011;57396;48.742;9.128;2023-04-09T02:35:23;16.00;;;12.47;;
2480;SDS011;57396;48.742;9.128;2023-04-09T02:37:49;15.93;;;12.30;;
2480;SDS011;57396;48.742;9.128;2023-04-09T02:40:14;13.83;;;12.33;;
2480;SDS011;57396;48.742;9.128;2023-04-09T02:42:39;15.70;;;12.77;;
2480;SDS011;57396;48.742;9.128;2023-04-09T02:45:05;16.77;;;13.00;;
2480;SDS011;57396;48.742;9.128;2023-04-09T02:47:31;13.70;;;11.63;;
2480;SDS011;57396;48.742;9.128;2023-04-09T02:49:56;15.63;;;12.67;;
2480;SDS011;57396;48.742;9.128;2023-04-09T02:52:22;14.97;;;12.90;;
2480;SDS011;57396;48.742;9.128;2023-04-09T02:54:49;15.60;;;12.20;;
2480;SDS011;57396;48.742;9.128;2023-04-09T02:57:14;13.77;;;11.77;;
2480;SDS011;57396;48.742;9.128;2023-04-09T02:59:40;16.23;;;11.77;;
2480;SDS011;57396;48.742;9.128;2023-04-09T03:02:05;16.43;;;13.37;;
2480;SDS011;57396;48.742;9.128;2023-04-09T03:04:30;14.30;;;12.10;;
2480;SDS011;57396;48.742;9.128;2023-04-09T03:06:56;14.10;;;12.00;;
2480;SDS011;57396;48.742;9.128;2023-04-09T03:09:21;17.90;;;12.20;;
2480;SDS011;57396;48.742;9.128;2023-04-09T03:11:47;16.80;;;12.00;;
2480;SDS011;57396;48.742;9.128;2023-04-09T03:14:12;13.80;;;11.77;;
2480;SDS011;57396;48.742;9.128;2023-04-09T03:16:38;16.80;;;11.83;;
2480;SDS011;57396;48.742;9.128;2023-04-09T03:19:03;16.40;;;12.03;;
2480;SDS011;57396;48.742;9.128;2023-04-09T03:21:28;14.00;;;11.10;;
2480;SDS011;57396;48.742;9.128;2023-04-09T03:23:54;14.37;;;11.70;;
2480;SDS011;57396;48.742;9.128;2023-04-09T03:26:20;14.43;;;11.37;;
2480;SDS011;57396;48.742;9.128;2023-04-09T03:28:45;15.50;;;11.50;;
2480;SDS011;57396;48.742;9.128;2023-04-09T03:31:11;21.77;;;13.07;;
2480;SDS011;57396;48.742;9.128;2023-04-09T03:33:37;15.03;;;12.40;;
2480;SDS011;57396;48.742;9.128;2023-04-09T03:36:03;13.33;;;11.20;;
2480;SDS011;57396;48.742;9.128;2023-04-09T03:38:29;15.30;;;11.60;;
2480;SDS011;57396;48.742;9.128;2023-04-09T03:40:55;20.40;;;13.00;;
2480;SDS011;57396;48.742;9.128;2023-04-09T03:43:20;16.13;;;10.70;;
2480;SDS011;57396;48.742;9.128;2023-04-09T03:45:46;17.33;;;11.47;;
2480;SDS011;57396;48.742;9.128;2023-04-09T03:48:11;13.00;;;11.60;;
2480;SDS011;57396;48.742;9.128;2023-04-09T03:50:37;14.57;;;11.93;;
2480;SDS011;57396;48.742;9.128;2023-04-09T03:53:03;13.20;;;11.67;;
2480;SDS011;57396;48.742;9.128;2023-04-09T03:55:29;14.00;;;11.57;;
2480;SDS011;57396;48.742;9.128;2023-04-09T03:57:54;16.80;;;12.47;;
2480;SDS011;57396;48.742;9.128;2023-04-09T04:00:20;16.30;;;12.07;;
2480;SDS011;57396;48.742;9.128;2023-04-09T04:02:46;17.60;;;12.57;;
2480;SDS011;57396;48.742;9.128;2023-04-09T04:05:12;13.37;;;11.60;;
2480;SDS011;57396;48.742;9.128;2023-04-09T04:07:37;18.50;;;11.90;;
2480;SDS011;57396;48.742;9.128;2023-04-09T04:10:06;19.67;;;12.37;;
2480;SDS011;57396;48.742;9.128;2023-04-09T04:12:32;14.33;;;12.10;;
2480;SDS011;57396;48.742;9.128;2023-04-09T04:14:57;12.37;;;11.07;;
2480;SDS011;57396;48.742;9.128;2023-04-09T04:17:23;14.90;;;12.00;;
2480;SDS011;57396;48.742;9.128;2023-04-09T04:19:48;11.60;;;10.37;;
2480;SDS011;57396;48.742;9.128;2023-04-09T04:22:13;13.27;;;11.60;;
2480;SDS011;57396;48.742;9.128;2023-04-09T04:24:39;14.33;;;11.07;;
2480;SDS011;57396;48.742;9.128;2023-04-09T04:27:05;14.60;;;11.33;;
2480;SDS011;57396;48.742;9.128;2023-04-09T04:29:30;13.03;;;11.53;;
2480;SDS011;57396;48.742;9.128;2023-04-09T04:31:56;17.30;;;11.40;;
2480;SDS011;57396;48.742;9.128;2023-04-09T04:34:21;15.43;;;12.40;;
2480;SDS011;57396;48.742;9.128;2023-04-09T04:36:47;12.63;;;11.33;;
2480;SDS011;57396;48.742;9.128;2023-04-09T04:39:12;14.03;;;11.50;;
2480;SDS011;57396;48.742;9.128;2023-04-09T04:41:38;15.50;;;12.07;;
2480;SDS011;57396;48.742;9.128;2023-04-09T04:44:03;16.90;;;12.33;;
2480;SDS011;57396;48.742;9.128;2023-04-09T04:46:29;15.97;;;12.20;;
2480;SDS011;57396;48.742;9.128;2023-04-09T04:48:54;17.13;;;11.43;;
2480;SDS011;57396;48.742;9.128;2023-04-09T04:51:19;13.07;;;11.30;;
2480;SDS011;57396;48.742;9.128;2023-04-09T04:53:45;14.60;;;11.30;;
2480;SDS011;57396;48.742;9.128;2023-04-09T04:56:14;21.60;;;12.57;;
2480;SDS011;57396;48.742;9.128;2023-04-09T04:58:39;20.97;;;11.87;;
2480;SDS011;57396;48.742;9.128;2023-04-09T05:01:05;12.90;;;11.10;;
2480;SDS011;57396;48.742;9.128;2023-04-09T05:03:31;14.80;;;11.53;;
2480;SDS011;57396;48.742;9.128;2023-04-09T05:05:56;13.87;;;12.00;;
2480;SDS011;57396;48.742;9.128;2023-04-09T05:08:21;16.80;;;11.60;;
2480;SDS011;57396;48.742;9.128;2023-04-09T05:10:47;14.80;;;12.07;;
2480;SDS011;57396;48.742;9.128;2023-04-09T05:13:12;14.70;;;11.83;;
2480;SDS011;57396;48.742;9.128;2023-04-09T05:15:38;14.63;;;12.50;;
2480;SDS011;57396;48.742;9.128;2023-04-09T05:18:04;15.40;;;12.83;;
2480;SDS011;57396;48.742;9.128;2023-04-09T05:20:30;14.40;;;12.23;;
2480;SDS011;57396;48.742;9.128;2023-04-09T05:22:56;15.00;;;13.10;;
2480;SDS011;57396;48.742;9.128;2023-04-09T05:25:21;16.53;;;14.03;;
2480;SDS011;57396;48.742;9.128;2023-04-09T05:27:47;17.03;;;13.40;;
2480;SDS011;57396;48.742;9.128;2023-04-09T05:30:12;19.40;;;14.47;;
2480;SDS011;57396;48.742;9.128;2023-04-09T05:32:38;17.53;;;14.03;;
2480;SDS011;57396;48.742;9.128;2023-04-09T05:35:03;14.87;;;12.47;;
2480;SDS011;57396;48.742;9.128;2023-04-09T05:37:29;16.73;;;12.63;;
2480;SDS011;57396;48.742;9.128;2023-04-09T05:39:55;16.53;;;12.77;;
2480;SDS011;57396;48.742;9.128;2023-04-09T05:42:21;22.30;;;13.40;;
2480;SDS011;57396;48.742;9.128;2023-04-09T05:44:46;14.83;;;12.73;;
2480;SDS011;57396;48.742;9.128;2023-04-09T05:47:12;14.60;;;12.63;;
2480;SDS011;57396;48.742;9.128;2023-04-09T05:49:37;19.50;;;13.20;;
2480;SDS011;57396;48.742;9.128;2023-04-09T05:52:02;13.43;;;12.03;;
2480;SDS011;57396;48.742;9.128;2023-04-09T05:54:28;17.97;;;14.13;;
2480;SDS011;57396;48.742;9.128;2023-04-09T05:56:53;19.77;;;15.50;;
2480;SDS011;57396;48.742;9.128;2023-04-09T05:59:19;23.27;;;17.43;;
2480;SDS011;57396;48.742;9.128;2023-04-09T06:01:44;22.57;;;16.97;;
2480;SDS011;57396;48.742;9.128;2023-04-09T06:04:10;19.83;;;15.03;;
2480;SDS011;57396;48.742;9.128;2023-04-09T06:06:38;18.17;;;14.30;;
2480;SDS011;57396;48.742;9.128;2023-04-09T06:09:04;17.40;;;15.07;;
2480;SDS011;57396;48.742;9.128;2023-04-09T06:11:29;15.73;;;13.43;;
2480;SDS011;57396;48.742;9.128;2023-04-09T06:13:55;20.13;;;15.40;;
2480;SDS011;57396;48.742;9.128;2023-04-09T06:16:20;17.43;;;14.17;;
2480;SDS011;57396;48.742;9.128;2023-04-09T06:18:46;19.63;;;14.83;;
2480;SDS011;57396;48.742;9.128;2023-04-09T06:21:13;17.27;;;14.20;;
2480;SDS011;57396;48.742;9.128;2023-04-09T06:23:39;16.00;;;13.17;;
2480;SDS011;57396;48.742;9.128;2023-04-09T06:26:05;19.83;;;14.30;;
2480;SDS011;57396;48.742;9.128;2023-04-09T06:28:30;15.73;;;14.00;;
2480;SDS011;57396;48.742;9.128;2023-04-09T06:30:56;18.63;;;14.23;;
2480;SDS011;57396;48.742;9.128;2023-04-09T06:33:22;19.53;;;13.83;;
2480;SDS011;57396;48.742;9.128;2023-04-09T06:35:48;15.53;;;13.70;;
2480;SDS011;57396;48.742;9.128;2023-04-09T06:38:14;15.40;;;13.57;;
2480;SDS011;57396;48.742;9.128;2023-04-09T06:40:39;16.13;;;14.43;;
2480;SDS011;57396;48.742;9.128;2023-04-09T06:43:05;14.83;;;12.97;;
2480;SDS011;57396;48.742;9.128;2023-04-09T06:45:31;14.70;;;12.97;;
2480;SDS011;57396;48.742;9.128;2023-04-09T06:47:57;16.43;;;13.40;;
2480;SDS011;57396;48.742;9.128;2023-04-09T06:50:23;14.43;;;11.73;;
2480;SDS011;57396;48.742;9.128;2023-04-09T06:52:49;15.90;;;13.30;;
2480;SDS011;57396;48.742;9.128;2023-04-09T06:55:15;14.50;;;12.97;;
2480;SDS011;57396;48.742;9.128;2023-04-09T06:57:41;17.17;;;13.30;;
2480;SDS011;57396;48.742;9.128;2023-04-09T07:00:06;17.47;;;14.00;;
2480;SDS011;57396;48.742;9.128;2023-04-09T07:02:32;15.17;;;12.50;;
2480;SDS011;57396;48.742;9.128;2023-04-09T07:04:58;17.70;;;13.37;;
2480;SDS011;57396;48.742;9.128;2023-04-09T07:07:23;13.93;;;12.23;;
2480;SDS011;57396;48.742;9.128;2023-04-09T07:09:49;15.03;;;13.43;;
2480;SDS011;57396;48.742;9.128;2023-04-09T07:12:25;13.70;;;12.30;;
2480;SDS011;57396;48.742;9.128;2023-04-09T07:14:51;15.80;;;13.10;;
2480;SDS011;57396;48.742;9.128;2023-04-09T07:17:17;13.20;;;11.60;;
2480;SDS011;57396;48.742;9.128;2023-04-09T07:19:42;12.97;;;11.40;;
2480;SDS011;57396;48.742;9.128;2023-04-09T07:22:08;11.77;;;10.57;;
2480;SDS011;57396;48.742;9.128;2023-04-09T07:24:33;11.40;;;10.20;;
2480;SDS011;57396;48.742;9.128;2023-04-09T07:27:02;12.47;;;11.17;;
2480;SDS011;57396;48.742;9.128;2023-04-09T07:29:27;12.00;;;10.27;;
2480;SDS011;57396;48.742;9.128;2023-04-09T07:31:53;11.53;;;10.40;;
2480;SDS011;57396;48.742;9.128;2023-04-09T07:34:18;11.93;;;9.90;;
2480;SDS011;57396;48.742;9.128;2023-04-09T07:36:44;11.30;;;10.10;;
2480;SDS011;57396;48.742;9.128;2023-04-09T07:39:09;12.00;;;10.33;;
2480;SDS011;57396;48.742;9.128;2023-04-09T07:41:35;12.47;;;8.60;;
2480;SDS011;57396;48.742;9.128;2023-04-09T07:44:01;9.97;;;8.97;;
2480;SDS011;57396;48.742;9.128;2023-04-09T07:46:27;10.73;;;8.80;;
2480;SDS011;57396;48.742;9.128;2023-04-09T07:48:53;10.00;;;9.00;;
2480;SDS011;57396;48.742;9.128;2023-04-09T07:51:18;9.93;;;8.50;;
2480;SDS011;57396;48.742;9.128;2023-04-09T07:53:44;9.50;;;8.33;;
2480;SDS011;57396;48.742;9.128;2023-04-09T07:56:09;10.53;;;8.53;;
2480;SDS011;57396;48.742;9.128;2023-04-09T07:58:35;10.07;;;7.97;;
2480;SDS011;57396;48.742;9.128;2023-04-09T08:01:02;8.77;;;7.97;;
2480;SDS011;57396;48.742;9.128;2023-04-09T08:03:27;8.63;;;7.73;;
2480;SDS011;57396;48.742;9.128;2023-04-09T08:05:53;8.70;;;7.70;;
2480;SDS011;57396;48.742;9.128;2023-04-09T08:08:18;7.40;;;6.70;;
2480;SDS011;57396;48.742;9.128;2023-04-09T08:10:44;7.90;;;7.10;;
2480;SDS011;57396;48.742;9.128;2023-04-09T08:13:09;7.43;;;6.73;;
2480;SDS011;57396;48.742;9.128;2023-04-09T08:15:35;8.37;;;7.53;;
2480;SDS011;57396;48.742;9.128;2023-04-09T08:18:00;10.00;;;6.93;;
2480;SDS011;57396;48.742;9.128;2023-04-09T08:20:28;8.57;;;7.77;;
2480;SDS011;57396;48.742;9.128;2023-04-09T08:22:54;9.00;;;8.10;;
2480;SDS011;57396;48.742;9.128;2023-04-09T08:25:20;10.73;;;9.63;;
2480;SDS011;57396;48.742;9.128;2023-04-09T08:27:46;11.07;;;9.83;;
2480;SDS011;57396;48.742;9.128;2023-04-09T08:30:11;10.60;;;9.50;;
2480;SDS011;57396;48.742;9.128;2023-04-09T08:32:37;10.30;;;9.30;;
2480;SDS011;57396;48.742;9.128;2023-04-09T08:35:02;9.67;;;8.67;;
2480;SDS011;57396;48.742;9.128;2023-04-09T08:37:28;8.50;;;7.60;;
2480;SDS011;57396;48.742;9.128;2023-04-09T08:39:53;8.50;;;7.70;;
2480;SDS011;57396;48.742;9.128;2023-04-09T08:42:19;8.83;;;7.93;;
2480;SDS011;57396;48.742;9.128;2023-04-09T08:44:45;8.93;;;8.10;;
2480;SDS011;57396;48.742;9.128;2023-04-09T08:47:11;6.00;;;5.50;;
2480;SDS011;57396;48.742;9.128;2023-04-09T08:49:39;7.30;;;6.60;;
2480;SDS011;57396;48.742;9.128;2023-04-09T08:52:05;6.93;;;6.17;;
2480;SDS011;57396;48.742;9.128;2023-04-09T08:54:31;6.50;;;5.90;;
2480;SDS011;57396;48.742;9.128;2023-04-09T08:56:56;7.57;;;6.83;;
2480;SDS011;57396;48.742;9.128;2023-04-09T08:59:22;7.03;;;6.40;;
2480;SDS011;57396;48.742;9.128;2023-04-09T09:01:48;6.30;;;5.70;;
2480;SDS011;57396;48.742;9.128;2023-04-09T09:04:18;7.53;;;6.20;;
2480;SDS011;57396;48.742;9.128;2023-04-09T09:06:43;6.87;;;6.23;;
2480;SDS011;57396;48.742;9.128;2023-04-09T09:09:11;7.00;;;6.37;;
2480;SDS011;57396;48.742;9.128;2023-04-09T09:11:38;7.00;;;6.27;;
2480;SDS011;57396;48.742;9.128;2023-04-09T09:14:06;7.50;;;6.70;;
2480;SDS011;57396;48.742;9.128;2023-04-09T09:16:34;7.23;;;6.53;;
2480;SDS011;57396;48.742;9.128;2023-04-09T09:19:00;9.80;;;8.10;;
2480;SDS011;57396;48.742;9.128;2023-04-09T09:21:27;9.23;;;8.23;;
2480;SDS011;57396;48.742;9.128;2023-04-09T09:23:54;9.07;;;8.17;;
2480;SDS011;57396;48.742;9.128;2023-04-09T09:26:21;8.50;;;7.70;;
2480;SDS011;57396;48.742;9.128;2023-04-09T09:28:50;7.77;;;7.00;;
2480;SDS011;57396;48.742;9.128;2023-04-09T09:31:17;7.10;;;6.40;;
2480;SDS011;57396;48.742;9.128;2023-04-09T09:33:43;7.23;;;6.53;;
2480;SDS011;57396;48.742;9.128;2023-04-09T09:36:08;7.67;;;6.87;;
2480;SDS011;57396;48.742;9.128;2023-04-09T09:41:17;7.47;;;6.77;;
2480;SDS011;57396;48.742;9.128;2023-04-09T09:43:43;6.73;;;6.13;;
2480;SDS011;57396;48.742;9.128;2023-04-09T09:46:09;7.80;;;7.10;;
2480;SDS011;57396;48.742;9.128;2023-04-09T09:48:35;7.00;;;6.30;;
2480;SDS011;57396;48.742;9.128;2023-04-09T09:51:01;7.50;;;6.80;;
2480;SDS011;57396;48.742;9.128;2023-04-09T09:53:27;7.67;;;6.90;;
2480;SDS011;57396;48.742;9.128;2023-04-09T09:55:54;7.40;;;6.70;;
2480;SDS011;57396;48.742;9.128;2023-04-09T09:58:22;7.70;;;7.00;;
2480;SDS011;57396;48.742;9.128;2023-04-09T10:00:52;8.03;;;7.23;;
2480;SDS011;57396;48.742;9.128;2023-04-09T10:03:24;7.90;;;7.07;;
2480;SDS011;57396;48.742;9.128;2023-04-09T10:05:51;8.50;;;7.70;;
2480;SDS011;57396;48.742;9.128;2023-04-09T10:08:18;7.90;;;7.10;;
2480;SDS011;57396;48.742;9.128;2023-04-09T10:10:45;7.57;;;6.90;;
2480;SDS011;57396;48.742;9.128;2023-04-09T10:13:22;8.07;;;7.30;;
2480;SDS011;57396;48.742;9.128;2023-04-09T10:15:50;7.60;;;6.80;;
2480;SDS011;57396;48.742;9.128;2023-04-09T10:18:16;6.57;;;5.97;;
2480;SDS011;57396;48.742;9.128;2023-04-09T10:20:45;7.40;;;6.70;;
2480;SDS011;57396;48.742;9.128;2023-04-09T10:23:18;6.17;;;5.67;;
2480;SDS011;57396;48.742;9.128;2023-04-09T10:25:49;6.43;;;5.83;;
2480;SDS011;57396;48.742;9.128;2023-04-09T10:28:15;6.80;;;6.20;;
2480;SDS011;57396;48.742;9.128;2023-04-09T10:30:41;7.93;;;7.20;;
2480;SDS011;57396;48.742;9.128;2023-04-09T10:33:08;6.77;;;6.17;;
2480;SDS011;57396;48.742;9.128;2023-04-09T10:35:34;7.07;;;6.47;;
2480;SDS011;57396;48.742;9.128;2023-04-09T10:38:00;6.80;;;6.10;;
2480;SDS011;57396;48.742;9.128;2023-04-09T10:40:26;6.50;;;5.90;;
2480;SDS011;57396;48.742;9.128;2023-04-09T10:42:52;7.03;;;5.90;;
2480;SDS011;57396;48.742;9.128;2023-04-09T10:45:19;8.50;;;5.27;;
2480;SDS011;57396;48.742;9.128;2023-04-09T10:47:45;5.53;;;5.03;;
2480;SDS011;57396;48.742;9.128;2023-04-09T10:50:24;5.53;;;5.03;;
2480;SDS011;57396;48.742;9.128;2023-04-09T10:52:51;9.73;;;5.23;;
2480;SDS011;57396;48.742;9.128;2023-04-09T10:55:32;5.20;;;4.70;;
2480;SDS011;57396;48.742;9.128;2023-04-09T10:58:01;6.00;;;5.40;;
2480;SDS011;57396;48.742;9.128;2023-04-09T11:00:27;5.57;;;5.07;;
2480;SDS011;57396;48.742;9.128;2023-04-09T11:05:34;4.90;;;4.40;;
2480;SDS011;57396;48.742;9.128;2023-04-09T11:08:05;6.10;;;5.50;;
2480;SDS011;57396;48.742;9.128;2023-04-09T11:10:33;6.53;;;5.83;;
2480;SDS011;57396;48.742;9.128;2023-04-09T11:12:59;5.90;;;5.30;;
2480;SDS011;57396;48.742;9.128;2023-04-09T11:15:24;5.80;;;5.30;;
2480;SDS011;57396;48.742;9.128;2023-04-09T11:17:50;6.00;;;5.47;;
2480;SDS011;57396;48.742;9.128;2023-04-09T11:20:16;6.47;;;5.40;;
2480;SDS011;57396;48.742;9.128;2023-04-09T11:22:44;5.97;;;5.47;;
2480;SDS011;57396;48.742;9.128;2023-04-09T11:25:10;5.57;;;5.07;;
2480;SDS011;57396;48.742;9.128;2023-04-09T11:27:43;6.03;;;5.43;;
2480;SDS011;57396;48.742;9.128;2023-04-09T11:30:09;5.73;;;5.23;;
2480;SDS011;57396;48.742;9.128;2023-04-09T11:32:34;6.90;;;6.30;;
2480;SDS011;57396;48.742;9.128;2023-04-09T11:35:00;7.13;;;6.47;;
2480;SDS011;57396;48.742;9.128;2023-04-09T11:37:25;7.50;;;6.30;;
2480;SDS011;57396;48.742;9.128;2023-04-09T11:39:52;6.30;;;5.70;;
2480;SDS011;57396;48.742;9.128;2023-04-09T11:42:19;6.57;;;5.97;;
2480;SDS011;57396;48.742;9.128;2023-04-09T11:44:46;6.50;;;5.90;;
2480;SDS011;57396;48.742;9.128;2023-04-09T11:47:12;6.80;;;6.13;;
2480;SDS011;57396;48.742;9.128;2023-04-09T11:49:37;6.90;;;6.30;;
2480;SDS011;57396;48.742;9.128;2023-04-09T11:52:03;7.40;;;6.70;;
2480;SDS011;57396;48.742;9.128;2023-04-09T11:54:32;8.13;;;6.97;;
2480;SDS011;57396;48.742;9.128;2023-04-09T11:56:58;6.77;;;6.17;;
2480;SDS011;57396;48.742;9.128;2023-04-09T11:59:23;6.90;;;6.23;;
2480;SDS011;57396;48.742;9.128;2023-04-09T12:01:49;6.77;;;6.17;;
2480;SDS011;57396;48.742;9.128;2023-04-09T12:04:19;5.83;;;5.33;;
2480;SDS011;57396;48.742;9.128;2023-04-09T12:06:45;6.87;;;6.27;;
2480;SDS011;57396;48.742;9.128;2023-04-09T12:09:11;6.73;;;6.23;;
2480;SDS011;57396;48.742;9.128;2023-04-09T12:11:38;6.80;;;5.70;;
2480;SDS011;57396;48.742;9.128;2023-04-09T12:14:06;6.30;;;5.70;;
2480;SDS011;57396;48.742;9.128;2023-04-09T12:16:37;6.00;;;5.43;;
2480;SDS011;57396;48.742;9.128;2023-04-09T12:19:05;6.40;;;5.90;;
2480;SDS011;57396;48.742;9.128;2023-04-09T12:24:17;6.47;;;5.90;;
2480;SDS011;57396;48.742;9.128;2023-04-09T12:26:43;6.40;;;5.80;;
2480;SDS011;57396;48.742;9.128;2023-04-09T12:29:10;5.87;;;5.30;;
2480;SDS011;57396;48.742;9.128;2023-04-09T12:31:35;5.63;;;5.20;;
2480;SDS011;57396;48.742;9.128;2023-04-09T12:34:00;6.17;;;5.63;;
2480;SDS011;57396;48.742;9.128;2023-04-09T12:36:26;6.63;;;5.97;;
2480;SDS011;57396;48.742;9.128;2023-04-09T12:38:51;6.40;;;5.80;;
2480;SDS011;57396;48.742;9.128;2023-04-09T12:41:17;6.67;;;6.07;;
2480;SDS011;57396;48.742;9.128;2023-04-09T12:43:42;6.73;;;6.07;;
2480;SDS011;57396;48.742;9.128;2023-04-09T12:46:08;6.87;;;6.20;;
2480;SDS011;57396;48.742;9.128;2023-04-09T12:48:33;7.13;;;6.40;;
2480;SDS011;57396;48.742;9.128;2023-04-09T12:50:59;7.77;;;6.20;;
2480;SDS011;57396;48.742;9.128;2023-04-09T12:53:25;6.10;;;5.60;;
2480;SDS011;57396;48.742;9.128;2023-04-09T12:55:50;6.80;;;6.20;;
2480;SDS011;57396;48.742;9.128;2023-04-09T12:58:16;6.57;;;5.90;;
2480;SDS011;57396;48.742;9.128;2023-04-09T13:00:41;7.03;;;6.33;;
2480;SDS011;57396;48.742;9.128;2023-04-09T13:03:07;6.37;;;5.77;;
2480;SDS011;57396;48.742;9.128;2023-04-09T13:05:33;7.57;;;5.40;;
2480;SDS011;57396;48.742;9.128;2023-04-09T13:08:00;8.27;;;6.40;;
2480;SDS011;57396;48.742;9.128;2023-04-09T13:10:26;6.00;;;5.47;;
2480;SDS011;57396;48.742;9.128;2023-04-09T13:12:51;6.67;;;6.07;;
2480;SDS011;57396;48.742;9.128;2023-04-09T13:15:17;7.17;;;6.47;;
2480;SDS011;57396;48.742;9.128;2023-04-09T13:17:42;6.50;;;5.90;;
2480;SDS011;57396;48.742;9.128;2023-04-09T13:20:08;8.30;;;6.27;;
2480;SDS011;57396;48.742;9.128;2023-04-09T13:22:33;6.70;;;6.07;;
2480;SDS011;57396;48.742;9.128;2023-04-09T13:25:00;6.03;;;5.43;;
2480;SDS011;57396;48.742;9.128;2023-04-09T13:27:25;6.07;;;5.47;;
2480;SDS011;57396;48.742;9.128;2023-04-09T13:29:51;5.40;;;4.90;;
2480;SDS011;57396;48.742;9.128;2023-04-09T13:32:16;5.20;;;4.80;;
2480;SDS011;57396;48.742;9.128;2023-04-09T13:34:44;6.33;;;5.73;;
2480;SDS011;57396;48.742;9.128;2023-04-09T13:37:10;5.67;;;5.17;;
2480;SDS011;57396;48.742;9.128;2023-04-09T13:39:35;6.20;;;5.60;;
2480;SDS011;57396;48.742;9.128;2023-04-09T13:42:01;5.60;;;5.10;;
2480;SDS011;57396;48.742;9.128;2023-04-09T13:44:26;5.70;;;5.20;;
2480;SDS011;57396;48.742;9.128;2023-04-09T13:46:53;5.40;;;4.90;;
2480;SDS011;57396;48.742;9.128;2023-04-09T13:49:18;5.90;;;5.30;;
2480;SDS011;57396;48.742;9.128;2023-04-09T13:51:43;5.77;;;5.20;;
2480;SDS011;57396;48.742;9.128;2023-04-09T13:54:09;5.90;;;5.40;;
2480;SDS011;57396;48.742;9.128;2023-04-09T13:56:35;6.10;;;5.00;;
2480;SDS011;57396;48.742;9.128;2023-04-09T13:59:01;5.50;;;5.00;;
2480;SDS011;57396;48.742;9.128;2023-04-09T14:01:27;6.03;;;5.43;;
2480;SDS011;57396;48.742;9.128;2023-04-09T14:03:53;5.50;;;5.00;;
2480;SDS011;57396;48.742;9.128;2023-04-09T14:06:19;6.03;;;5.30;;
2480;SDS011;57396;48.742;9.128;2023-04-09T14:08:45;5.80;;;5.30;;
2480;SDS011;57396;48.742;9.128;2023-04-09T14:11:10;5.80;;;4.70;;
2480;SDS011;57396;48.742;9.128;2023-04-09T14:13:39;5.23;;;4.73;;
2480;SDS011;57396;48.742;9.128;2023-04-09T14:16:04;5.60;;;5.10;;
2480;SDS011;57396;48.742;9.128;2023-04-09T14:18:30;5.70;;;5.10;;
2480;SDS011;57396;48.742;9.128;2023-04-09T14:20:57;5.47;;;4.97;;
2480;SDS011;57396;48.742;9.128;2023-04-09T14:23:22;6.30;;;5.70;;
2480;SDS011;57396;48.742;9.128;2023-04-09T14:25:48;5.63;;;5.07;;
2480;SDS011;57396;48.742;9.128;2023-04-09T14:28:13;5.20;;;4.37;;
2480;SDS011;57396;48.742;9.128;2023-04-09T14:30:38;8.60;;;5.70;;
2480;SDS011;57396;48.742;9.128;2023-04-09T14:33:04;5.20;;;4.70;;
2480;SDS011;57396;48.742;9.128;2023-04-09T14:35:29;5.33;;;4.90;;
2480;SDS011;57396;48.742;9.128;2023-04-09T14:37:55;5.53;;;5.03;;
2480;SDS011;57396;48.742;9.128;2023-04-09T14:40:21;6.27;;;5.30;;
2480;SDS011;57396;48.742;9.128;2023-04-09T14:42:46;5.30;;;4.53;;
2480;SDS011;57396;48.742;9.128;2023-04-09T14:45:12;5.40;;;4.70;;
2480;SDS011;57396;48.742;9.128;2023-04-09T14:47:37;5.30;;;4.80;;
2480;SDS011;57396;48.742;9.128;2023-04-09T14:50:03;5.57;;;5.07;;
2480;SDS011;57396;48.742;9.128;2023-04-09T14:52:28;6.60;;;5.90;;
2480;SDS011;57396;48.742;9.128;2023-04-09T14:54:54;6.30;;;5.57;;
2480;SDS011;57396;48.742;9.128;2023-04-09T14:57:20;6.53;;;5.87;;
2480;SDS011;57396;48.742;9.128;2023-04-09T14:59:46;6.43;;;5.77;;
2480;SDS011;57396;48.742;9.128;2023-04-09T15:02:11;6.30;;;5.70;;
2480;SDS011;57396;48.742;9.128;2023-04-09T15:04:36;6.90;;;6.20;;